createdAt,value
2019-02-04T00:00:21.647Z,999.51
2019-02-04T00:01:21.779Z,999.49
2019-02-04T00:02:21.906Z,999.51
2019-02-04T00:03:22.036Z,999.51
2019-02-04T00:04:22.167Z,999.53
2019-02-04T00:05:22.287Z,999.51
2019-02-04T00:06:22.456Z,999.52
2019-02-04T00:07:22.575Z,999.55
2019-02-04T00:08:22.707Z,999.48
2019-02-04T00:09:22.831Z,999.49
2019-02-04T00:10:22.959Z,999.49
2019-02-04T00:11:23.087Z,999.46
2019-02-04T00:12:23.209Z,999.46
2019-02-04T00:13:23.340Z,999.53
2019-02-04T00:14:23.462Z,999.56
2019-02-04T00:15:23.582Z,999.53
2019-02-04T00:16:23.715Z,999.54
2019-02-04T00:17:23.842Z,999.54
2019-02-04T00:18:23.974Z,999.57
2019-02-04T00:19:24.111Z,999.58
2019-02-04T00:20:24.232Z,999.55
2019-02-04T00:21:24.381Z,999.54
2019-02-04T00:22:24.516Z,999.53
2019-02-04T00:23:24.644Z,999.58
2019-02-04T00:24:24.770Z,999.52
2019-02-04T00:25:24.899Z,999.56
2019-02-04T00:26:25.030Z,999.57
2019-02-04T00:27:25.159Z,999.59
2019-02-04T00:28:25.283Z,999.59
2019-02-04T00:29:25.412Z,999.60
2019-02-04T00:30:25.543Z,999.59
2019-02-04T00:31:25.680Z,999.60
2019-02-04T00:32:25.797Z,999.63
2019-02-04T00:33:25.925Z,999.64
2019-02-04T00:34:26.058Z,999.59
2019-02-04T00:35:26.178Z,999.60
2019-02-04T00:36:26.315Z,999.60
2019-02-04T00:37:26.476Z,999.61
2019-02-04T00:38:26.565Z,999.62
2019-02-04T00:39:26.693Z,999.58
2019-02-04T00:40:26.820Z,999.56
2019-02-04T00:41:26.944Z,999.55
2019-02-04T00:42:27.070Z,999.56
2019-02-04T00:43:27.195Z,999.56
2019-02-04T00:44:27.329Z,999.56
2019-02-04T00:45:27.461Z,999.54
2019-02-04T00:46:27.601Z,999.56
2019-02-04T00:47:27.718Z,999.61
2019-02-04T00:48:27.848Z,999.63
2019-02-04T00:49:27.980Z,999.62
2019-02-04T00:50:28.115Z,999.67
2019-02-04T00:51:28.248Z,999.71
2019-02-04T00:52:28.375Z,999.71
2019-02-04T00:53:28.502Z,999.74
2019-02-04T00:54:28.642Z,999.73
2019-02-04T00:55:28.770Z,999.76
2019-02-04T00:56:28.897Z,999.78
2019-02-04T00:57:29.020Z,999.80
2019-02-04T00:58:29.145Z,999.79
2019-02-04T00:59:29.276Z,999.75
2019-02-04T01:00:29.396Z,999.78
2019-02-04T01:01:30.287Z,999.78
2019-02-04T01:02:29.683Z,999.74
2019-02-04T01:03:29.818Z,999.75
2019-02-04T01:04:29.941Z,999.78
2019-02-04T01:05:30.074Z,999.79
2019-02-04T01:06:30.194Z,999.75
2019-02-04T01:07:30.335Z,999.85
2019-02-04T01:08:30.460Z,999.82
2019-02-04T01:09:30.582Z,999.81
2019-02-04T01:10:30.708Z,999.81
2019-02-04T01:11:30.838Z,999.80
2019-02-04T01:12:30.973Z,999.77
2019-02-04T01:13:31.101Z,999.82
2019-02-04T01:14:31.230Z,999.79
2019-02-04T01:15:31.367Z,999.81
2019-02-04T01:16:31.491Z,999.76
2019-02-04T01:17:31.616Z,999.75
2019-02-04T01:18:31.755Z,999.78
2019-02-04T01:19:31.881Z,999.81
2019-02-04T01:20:32.002Z,999.81
2019-02-04T01:21:32.214Z,999.83
2019-02-04T01:22:32.255Z,999.89
2019-02-04T01:23:32.384Z,999.87
2019-02-04T01:24:32.510Z,999.89
2019-02-04T01:25:32.638Z,999.90
2019-02-04T01:26:32.768Z,999.88
2019-02-04T01:27:32.891Z,999.91
2019-02-04T01:28:33.015Z,999.86
2019-02-04T01:29:33.144Z,999.85
2019-02-04T01:30:33.275Z,999.88
2019-02-04T01:31:33.406Z,999.88
2019-02-04T01:32:33.530Z,999.84
2019-02-04T01:33:33.662Z,999.90
2019-02-04T01:34:33.793Z,999.94
2019-02-04T01:35:33.930Z,999.99
2019-02-04T01:36:34.053Z,999.92
2019-02-04T01:37:34.175Z,999.92
2019-02-04T01:38:34.307Z,999.95
2019-02-04T01:39:34.437Z,999.91
2019-02-04T01:40:34.564Z,999.87
2019-02-04T01:41:34.687Z,999.92
2019-02-04T01:42:34.814Z,999.89
2019-02-04T01:43:34.941Z,999.93
2019-02-04T01:44:35.065Z,999.92
2019-02-04T01:45:35.200Z,999.93
2019-02-04T01:46:35.324Z,999.98
2019-02-04T01:47:35.446Z,999.96
2019-02-04T01:48:35.575Z,999.96
2019-02-04T01:49:35.711Z,999.95
2019-02-04T01:50:35.836Z,999.98
2019-02-04T01:51:35.968Z,999.95
2019-02-04T01:52:36.101Z,999.99
2019-02-04T01:53:36.225Z,1000.00
2019-02-04T01:54:36.346Z,999.99
2019-02-04T01:55:36.470Z,1000.01
2019-02-04T01:56:36.598Z,1000.03
2019-02-04T01:57:36.726Z,999.98
2019-02-04T01:58:36.857Z,1000.05
2019-02-04T01:59:36.975Z,1000.05
2019-02-04T02:00:37.101Z,1000.05
2019-02-04T02:01:37.227Z,1000.06
2019-02-04T02:02:37.360Z,1000.08
2019-02-04T02:03:37.488Z,1000.06
2019-02-04T02:04:37.611Z,1000.06
2019-02-04T02:05:37.740Z,1000.11
2019-02-04T02:06:38.783Z,1000.16
2019-02-04T02:07:38.055Z,1000.18
2019-02-04T02:08:38.184Z,1000.20
2019-02-04T02:09:39.271Z,1000.30
2019-02-04T02:10:38.446Z,1000.36
2019-02-04T02:11:38.573Z,1000.36
2019-02-04T02:12:38.699Z,1000.32
2019-02-04T02:13:38.829Z,1000.25
2019-02-04T02:14:38.949Z,1000.30
2019-02-04T02:15:39.164Z,1000.31
2019-02-04T02:16:39.198Z,1000.33
2019-02-04T02:17:39.331Z,1000.39
2019-02-04T02:18:39.456Z,1000.38
2019-02-04T02:19:39.583Z,1000.38
2019-02-04T02:20:39.713Z,1000.41
2019-02-04T02:21:39.848Z,1000.38
2019-02-04T02:22:39.975Z,1000.44
2019-02-04T02:23:40.119Z,1000.39
2019-02-04T02:24:40.248Z,1000.39
2019-02-04T02:25:40.386Z,1000.42
2019-02-04T02:26:40.538Z,1000.45
2019-02-04T02:27:40.667Z,1000.50
2019-02-04T02:28:40.792Z,1000.53
2019-02-04T02:29:40.928Z,1000.54
2019-02-04T02:30:41.061Z,1000.61
2019-02-04T02:31:41.183Z,1000.56
2019-02-04T02:32:41.307Z,1000.59
2019-02-04T02:33:41.431Z,1000.62
2019-02-04T02:34:41.620Z,1000.68
2019-02-04T02:35:41.687Z,1000.66
2019-02-04T02:36:41.810Z,1000.62
2019-02-04T02:37:41.935Z,1000.65
2019-02-04T02:38:42.052Z,1000.67
2019-02-04T02:39:42.185Z,1000.64
2019-02-04T02:40:42.307Z,1000.63
2019-02-04T02:41:42.438Z,1000.61
2019-02-04T02:42:42.571Z,1000.58
2019-02-04T02:43:42.694Z,1000.54
2019-02-04T02:44:42.826Z,1000.54
2019-02-04T02:45:42.947Z,1000.45
2019-02-04T02:46:43.081Z,1000.44
2019-02-04T02:47:43.201Z,1000.40
2019-02-04T02:48:43.326Z,1000.39
2019-02-04T02:49:43.450Z,1000.42
2019-02-04T02:50:43.575Z,1000.40
2019-02-04T02:51:43.704Z,1000.40
2019-02-04T02:52:43.827Z,1000.39
2019-02-04T02:53:43.958Z,1000.38
2019-02-04T02:54:44.087Z,1000.37
2019-02-04T02:55:44.233Z,1000.30
2019-02-04T02:56:44.342Z,1000.34
2019-02-04T02:57:44.537Z,1000.30
2019-02-04T02:58:44.655Z,1000.35
2019-02-04T02:59:44.733Z,1000.35
2019-02-04T03:00:44.863Z,1000.38
2019-02-04T03:01:44.989Z,1000.44
2019-02-04T03:02:45.126Z,1000.47
2019-02-04T03:03:45.244Z,1000.49
2019-02-04T03:04:45.367Z,1000.54
2019-02-04T03:05:45.493Z,1000.58
2019-02-04T03:06:45.620Z,1000.57
2019-02-04T03:07:45.749Z,1000.66
2019-02-04T03:08:45.873Z,1000.65
2019-02-04T03:09:46.001Z,1000.64
2019-02-04T03:10:46.131Z,1000.66
2019-02-04T03:11:46.251Z,1000.67
2019-02-04T03:12:46.380Z,1000.69
2019-02-04T03:13:46.504Z,1000.67
2019-02-04T03:14:46.639Z,1000.65
2019-02-04T03:15:46.772Z,1000.68
2019-02-04T03:16:46.897Z,1000.67
2019-02-04T03:17:52.011Z,1000.72
2019-02-04T03:18:47.145Z,1000.73
2019-02-04T03:19:47.270Z,1000.79
2019-02-04T03:20:47.398Z,1000.81
2019-02-04T03:21:47.520Z,1000.86
2019-02-04T03:22:47.654Z,1000.89
2019-02-04T03:23:47.772Z,1000.91
2019-02-04T03:24:47.899Z,1000.90
2019-02-04T03:25:48.027Z,1000.91
2019-02-04T03:26:48.152Z,1000.89
2019-02-04T03:27:48.285Z,1000.92
2019-02-04T03:28:48.409Z,1000.90
2019-02-04T03:29:48.536Z,1000.94
2019-02-04T03:30:48.659Z,1000.94
2019-02-04T03:31:48.822Z,1000.96
2019-02-04T03:32:48.914Z,1000.96
2019-02-04T03:33:49.039Z,1000.97
2019-02-04T03:34:49.169Z,1000.96
2019-02-04T03:35:49.297Z,1000.95
2019-02-04T03:36:49.425Z,1000.96
2019-02-04T03:37:52.226Z,1000.96
2019-02-04T03:38:49.682Z,1001.03
2019-02-04T03:39:49.805Z,1001.03
2019-02-04T03:40:49.935Z,1001.04
2019-02-04T03:41:50.060Z,1001.10
2019-02-04T03:42:50.188Z,1001.08
2019-02-04T03:43:50.314Z,1001.10
2019-02-04T03:44:50.440Z,1001.10
2019-02-04T03:45:50.567Z,1001.11
2019-02-04T03:46:50.696Z,1001.12
2019-02-04T03:48:03.772Z,1001.08
2019-02-04T03:48:50.951Z,1001.06
2019-02-04T03:49:51.082Z,1001.02
2019-02-04T03:50:51.215Z,1001.02
2019-02-04T03:51:51.339Z,1001.04
2019-02-04T03:52:51.467Z,1001.03
2019-02-04T03:53:51.593Z,1001.04
2019-02-04T03:54:51.719Z,1001.03
2019-02-04T03:55:51.847Z,1001.06
2019-02-04T03:56:51.971Z,1001.07
2019-02-04T03:57:52.098Z,1001.11
2019-02-04T03:58:52.218Z,1001.10
2019-02-04T03:59:52.347Z,1001.13
2019-02-04T04:00:52.471Z,1001.14
2019-02-04T04:01:52.601Z,1001.17
2019-02-04T04:02:52.765Z,1001.14
2019-02-04T04:03:52.890Z,1001.16
2019-02-04T04:04:53.018Z,1001.18
2019-02-04T04:05:53.147Z,1001.23
2019-02-04T04:06:53.267Z,1001.28
2019-02-04T04:07:53.740Z,1001.28
2019-02-04T04:08:53.525Z,1001.28
2019-02-04T04:09:53.649Z,1001.32
2019-02-04T04:10:53.789Z,1001.34
2019-02-04T04:11:53.917Z,1001.32
2019-02-04T04:12:54.047Z,1001.30
2019-02-04T04:13:54.170Z,1001.35
2019-02-04T04:14:54.295Z,1001.41
2019-02-04T04:15:54.425Z,1001.42
2019-02-04T04:16:54.563Z,1001.43
2019-02-04T04:17:54.687Z,1001.43
2019-02-04T04:18:54.813Z,1001.37
2019-02-04T04:19:54.941Z,1001.40
2019-02-04T04:20:55.064Z,1001.35
2019-02-04T04:21:55.193Z,1001.37
2019-02-04T04:22:55.320Z,1001.31
2019-02-04T04:23:55.439Z,1001.35
2019-02-04T04:24:55.563Z,1001.36
2019-02-04T04:25:55.695Z,1001.34
2019-02-04T04:26:55.817Z,1001.31
2019-02-04T04:27:55.957Z,1001.29
2019-02-04T04:28:56.078Z,1001.35
2019-02-04T04:29:56.205Z,1001.37
2019-02-04T04:30:56.330Z,1001.38
2019-02-04T04:31:56.457Z,1001.41
2019-02-04T04:32:56.583Z,1001.36
2019-02-04T04:33:56.708Z,1001.34
2019-02-04T04:34:56.838Z,1001.35
2019-02-04T04:35:56.961Z,1001.38
2019-02-04T04:36:57.088Z,1001.33
2019-02-04T04:37:57.225Z,1001.33
2019-02-04T04:38:57.349Z,1001.29
2019-02-04T04:39:57.481Z,1001.29
2019-02-04T04:40:57.604Z,1001.33
2019-02-04T04:41:57.732Z,1001.34
2019-02-04T04:42:57.864Z,1001.39
2019-02-04T04:43:57.997Z,1001.36
2019-02-04T04:44:58.122Z,1001.31
2019-02-04T04:45:58.251Z,1001.37
2019-02-04T04:46:58.376Z,1001.35
2019-02-04T04:47:58.505Z,1001.34
2019-02-04T04:48:58.635Z,1001.29
2019-02-04T04:49:58.755Z,1001.32
2019-02-04T04:50:58.885Z,1001.36
2019-02-04T04:51:59.012Z,1001.39
2019-02-04T04:52:59.136Z,1001.39
2019-02-04T04:53:59.266Z,1001.42
2019-02-04T04:54:59.385Z,1001.46
2019-02-04T04:55:59.511Z,1001.44
2019-02-04T04:56:59.637Z,1001.44
2019-02-04T04:57:59.761Z,1001.37
2019-02-04T04:58:59.891Z,1001.40
2019-02-04T05:00:00.145Z,1001.44
2019-02-04T05:01:00.146Z,1001.43
2019-02-04T05:02:00.272Z,1001.42
2019-02-04T05:03:00.400Z,1001.45
2019-02-04T05:04:00.529Z,1001.45
2019-02-04T05:05:00.654Z,1001.45
2019-02-04T05:06:00.773Z,1001.44
2019-02-04T05:07:00.901Z,1001.46
2019-02-04T05:08:01.031Z,1001.44
2019-02-04T05:09:01.154Z,1001.42
2019-02-04T05:10:01.282Z,1001.41
2019-02-04T05:11:01.405Z,1001.37
2019-02-04T05:12:01.532Z,1001.42
2019-02-04T05:13:01.658Z,1001.40
2019-02-04T05:14:01.785Z,1001.42
2019-02-04T05:15:01.910Z,1001.48
2019-02-04T05:16:02.044Z,1001.47
2019-02-04T05:17:02.169Z,1001.44
2019-02-04T05:18:02.311Z,1001.45
2019-02-04T05:19:02.429Z,1001.45
2019-02-04T05:20:02.548Z,1001.42
2019-02-04T05:21:02.672Z,1001.44
2019-02-04T05:22:02.801Z,1001.49
2019-02-04T05:23:02.927Z,1001.45
2019-02-04T05:24:03.059Z,1001.46
2019-02-04T05:25:03.181Z,1001.53
2019-02-04T05:26:03.306Z,1001.52
2019-02-04T05:27:03.440Z,1001.50
2019-02-04T05:28:03.561Z,1001.46
2019-02-04T05:29:03.695Z,1001.49
2019-02-04T05:30:03.821Z,1001.50
2019-02-04T05:31:03.944Z,1001.53
2019-02-04T05:32:04.072Z,1001.56
2019-02-04T05:33:04.193Z,1001.60
2019-02-04T05:34:04.397Z,1001.53
2019-02-04T05:35:04.450Z,1001.50
2019-02-04T05:36:04.572Z,1001.51
2019-02-04T05:37:04.701Z,1001.42
2019-02-04T05:38:04.824Z,1001.52
2019-02-04T05:39:04.946Z,1001.51
2019-02-04T05:40:05.073Z,1001.54
2019-02-04T05:41:05.211Z,1001.52
2019-02-04T05:42:05.341Z,1001.53
2019-02-04T05:43:05.460Z,1001.48
2019-02-04T05:44:05.596Z,1001.51
2019-02-04T05:45:05.716Z,1001.55
2019-02-04T05:46:05.844Z,1001.60
2019-02-04T05:47:05.971Z,1001.55
2019-02-04T05:48:06.097Z,1001.51
2019-02-04T05:49:06.231Z,1001.55
2019-02-04T05:50:06.353Z,1001.61
2019-02-04T05:51:06.482Z,1001.59
2019-02-04T05:52:06.609Z,1001.63
2019-02-04T05:53:06.740Z,1001.60
2019-02-04T05:54:06.857Z,1001.63
2019-02-04T05:55:06.986Z,1001.62
2019-02-04T05:56:07.109Z,1001.67
2019-02-04T05:57:07.236Z,1001.73
2019-02-04T05:58:07.366Z,1001.75
2019-02-04T05:59:07.491Z,1001.72
2019-02-04T06:00:07.620Z,1001.77
2019-02-04T06:01:07.745Z,1001.77
2019-02-04T06:02:09.465Z,1001.76
2019-02-04T06:03:07.999Z,1001.74
2019-02-04T06:04:08.126Z,1001.73
2019-02-04T06:05:08.260Z,1001.73
2019-02-04T06:06:08.376Z,1001.75
2019-02-04T06:07:08.504Z,1001.70
2019-02-04T06:08:08.624Z,1001.73
2019-02-04T06:09:08.747Z,1001.77
2019-02-04T06:10:08.871Z,1001.71
2019-02-04T06:11:09.002Z,1001.69
2019-02-04T06:12:09.127Z,1001.74
2019-02-04T06:13:09.254Z,1001.70
2019-02-04T06:14:09.376Z,1001.69
2019-02-04T06:15:09.506Z,1001.67
2019-02-04T06:16:09.637Z,1001.71
2019-02-04T06:17:09.762Z,1001.75
2019-02-04T06:18:09.897Z,1001.76
2019-02-04T06:19:10.018Z,1001.80
2019-02-04T06:20:10.146Z,1001.76
2019-02-04T06:21:10.264Z,1001.81
2019-02-04T06:22:10.391Z,1001.74
2019-02-04T06:23:10.516Z,1001.73
2019-02-04T06:24:10.644Z,1001.69
2019-02-04T06:25:10.772Z,1001.70
2019-02-04T06:26:10.905Z,1001.71
2019-02-04T06:27:11.034Z,1001.69
2019-02-04T06:28:11.156Z,1001.69
2019-02-04T06:29:11.284Z,1001.70
2019-02-04T06:30:11.406Z,1001.73
2019-02-04T06:31:11.539Z,1001.73
2019-02-04T06:32:11.658Z,1001.77
2019-02-04T06:33:11.785Z,1001.74
2019-02-04T06:34:11.911Z,1001.76
2019-02-04T06:35:12.031Z,1001.75
2019-02-04T06:36:12.158Z,1001.75
2019-02-04T06:37:12.294Z,1001.76
2019-02-04T06:38:12.419Z,1001.78
2019-02-04T06:39:12.548Z,1001.77
2019-02-04T06:40:12.672Z,1001.80
2019-02-04T06:41:12.803Z,1001.85
2019-02-04T06:42:12.931Z,1001.79
2019-02-04T06:43:13.060Z,1001.83
2019-02-04T06:44:13.180Z,1001.86
2019-02-04T06:45:13.313Z,1001.83
2019-02-04T06:46:13.439Z,1001.86
2019-02-04T06:47:13.570Z,1001.87
2019-02-04T06:48:13.725Z,1001.86
2019-02-04T06:49:13.824Z,1001.95
2019-02-04T06:50:13.949Z,1001.89
2019-02-04T06:51:14.078Z,1001.88
2019-02-04T06:52:14.202Z,1001.90
2019-02-04T06:53:14.329Z,1001.97
2019-02-04T06:54:14.456Z,1001.96
2019-02-04T06:55:14.583Z,1002.00
2019-02-04T06:56:14.708Z,1002.07
2019-02-04T06:57:14.839Z,1002.04
2019-02-04T06:58:14.956Z,1002.03
2019-02-04T06:59:15.086Z,1001.99
2019-02-04T07:00:15.211Z,1002.05
2019-02-04T07:01:15.336Z,1002.02
2019-02-04T07:02:15.460Z,1002.03
2019-02-04T07:03:15.607Z,1002.05
2019-02-04T07:04:15.715Z,1002.04
2019-02-04T07:05:15.836Z,1002.04
2019-02-04T07:06:15.965Z,1002.05
2019-02-04T07:07:16.094Z,1002.06
2019-02-04T07:08:16.220Z,1002.02
2019-02-04T07:09:16.344Z,1002.04
2019-02-04T07:10:16.470Z,1002.07
2019-02-04T07:11:16.604Z,1002.06
2019-02-04T07:12:16.742Z,1002.11
2019-02-04T07:13:16.869Z,1002.04
2019-02-04T07:14:17.019Z,1002.10
2019-02-04T07:15:17.119Z,1002.03
2019-02-04T07:16:17.248Z,1002.05
2019-02-04T07:17:17.376Z,1002.06
2019-02-04T07:18:17.498Z,1002.00
2019-02-04T07:19:24.229Z,1001.99
2019-02-04T07:20:17.755Z,1002.04
2019-02-04T07:21:20.924Z,1001.99
2019-02-04T07:22:17.997Z,1001.99
2019-02-04T07:23:18.123Z,1001.98
2019-02-04T07:24:18.264Z,1001.97
2019-02-04T07:25:18.384Z,1001.97
2019-02-04T07:26:18.504Z,1002.04
2019-02-04T07:27:18.626Z,1002.03
2019-02-04T07:28:18.752Z,1002.05
2019-02-04T07:29:18.886Z,1002.06
2019-02-04T07:30:19.014Z,1002.03
2019-02-04T07:31:19.142Z,1002.05
2019-02-04T07:32:19.272Z,1002.05
2019-02-04T07:33:19.402Z,1002.03
2019-02-04T07:34:19.528Z,1002.03
2019-02-04T07:35:19.649Z,1002.05
2019-02-04T07:36:19.772Z,1002.07
2019-02-04T07:37:19.897Z,1002.09
2019-02-04T07:38:20.031Z,1002.06
2019-02-04T07:39:20.164Z,1002.08
2019-02-04T07:40:20.292Z,1002.08
2019-02-04T07:41:20.419Z,1002.11
2019-02-04T07:42:20.543Z,1002.08
2019-02-04T07:43:20.673Z,1002.07
2019-02-04T07:44:20.804Z,1002.08
2019-02-04T07:45:20.924Z,1002.09
2019-02-04T07:46:21.051Z,1002.05
2019-02-04T07:47:21.178Z,1002.06
2019-02-04T07:48:21.305Z,1002.07
2019-02-04T07:49:21.447Z,1002.04
2019-02-04T07:50:21.575Z,1002.09
2019-02-04T07:51:21.704Z,1002.11
2019-02-04T07:52:21.829Z,1002.08
2019-02-04T07:53:21.958Z,1002.10
2019-02-04T07:54:22.188Z,1002.11
2019-02-04T07:55:22.205Z,1002.12
2019-02-04T07:56:22.332Z,1002.15
2019-02-04T07:57:22.456Z,1002.16
2019-02-04T07:58:22.581Z,1002.17
2019-02-04T07:59:22.713Z,1002.13
2019-02-04T08:00:22.836Z,1002.10
2019-02-04T08:01:22.962Z,1002.10
2019-02-04T08:02:23.090Z,1002.07
2019-02-04T08:03:23.218Z,1002.06
2019-02-04T08:04:23.345Z,1002.10
2019-02-04T08:05:23.467Z,1002.08
2019-02-04T08:06:23.597Z,1002.13
2019-02-04T08:07:23.716Z,1002.11
2019-02-04T08:08:23.840Z,1002.06
2019-02-04T08:09:23.968Z,1002.06
2019-02-04T08:10:24.095Z,1002.08
2019-02-04T08:11:24.223Z,1002.11
2019-02-04T08:12:24.355Z,1002.11
2019-02-04T08:13:24.479Z,1002.09
2019-02-04T08:14:24.620Z,1002.13
2019-02-04T08:15:24.749Z,1002.09
2019-02-04T08:16:24.865Z,1002.07
2019-02-04T08:17:24.996Z,1002.10
2019-02-04T08:18:25.126Z,1002.11
2019-02-04T08:19:25.363Z,1002.15
2019-02-04T08:20:25.390Z,1002.18
2019-02-04T08:21:25.515Z,1002.20
2019-02-04T08:22:25.644Z,1002.18
2019-02-04T08:23:25.767Z,1002.23
2019-02-04T08:24:25.904Z,1002.22
2019-02-04T08:25:26.409Z,1002.20
2019-02-04T08:26:26.159Z,1002.20
2019-02-04T08:27:26.279Z,1002.23
2019-02-04T08:28:26.413Z,1002.21
2019-02-04T08:29:26.541Z,1002.22
2019-02-04T08:30:26.666Z,1002.21
2019-02-04T08:31:26.794Z,1002.25
2019-02-04T08:32:26.921Z,1002.19
2019-02-04T08:33:27.051Z,1002.27
2019-02-04T08:34:27.184Z,1002.23
2019-02-04T08:35:27.310Z,1002.25
2019-02-04T08:36:27.451Z,1002.24
2019-02-04T08:37:27.573Z,1002.24
2019-02-04T08:38:27.700Z,1002.28
2019-02-04T08:39:27.827Z,1002.27
2019-02-04T08:40:27.955Z,1002.22
2019-02-04T08:41:28.089Z,1002.26
2019-02-04T08:42:28.212Z,1002.20
2019-02-04T08:43:28.340Z,1002.24
2019-02-04T08:44:28.465Z,1002.23
2019-02-04T08:45:28.590Z,1002.25
2019-02-04T08:46:28.713Z,1002.18
2019-02-04T08:47:28.827Z,1002.18
2019-02-04T08:48:28.970Z,1002.18
2019-02-04T08:49:29.097Z,1002.18
2019-02-04T08:50:29.223Z,1002.19
2019-02-04T08:51:29.354Z,1002.19
2019-02-04T08:52:29.483Z,1002.17
2019-02-04T08:53:29.610Z,1002.19
2019-02-04T08:54:29.735Z,1002.21
2019-02-04T08:55:29.875Z,1002.19
2019-02-04T08:56:30.000Z,1002.18
2019-02-04T08:57:30.116Z,1002.22
2019-02-04T08:58:30.249Z,1002.28
2019-02-04T08:59:30.373Z,1002.23
2019-02-04T09:00:30.504Z,1002.21
2019-02-04T09:01:30.631Z,1002.20
2019-02-04T09:02:30.762Z,1002.21
2019-02-04T09:03:30.891Z,1002.19
2019-02-04T09:04:31.026Z,1002.16
2019-02-04T09:05:31.156Z,1002.16
2019-02-04T09:06:31.278Z,1002.14
2019-02-04T09:07:31.412Z,1002.13
2019-02-04T09:08:31.536Z,1002.20
2019-02-04T09:09:31.668Z,1002.14
2019-02-04T09:10:31.801Z,1002.13
2019-02-04T09:11:31.925Z,1002.15
2019-02-04T09:12:32.049Z,1002.12
2019-02-04T09:13:32.179Z,1002.11
2019-02-04T09:14:32.310Z,1002.13
2019-02-04T09:15:32.458Z,1002.11
2019-02-04T09:16:32.569Z,1002.09
2019-02-04T09:17:32.704Z,1002.15
2019-02-04T09:18:44.133Z,1002.11
2019-02-04T09:19:32.977Z,1002.14
2019-02-04T09:20:33.103Z,1002.13
2019-02-04T09:21:33.244Z,1002.10
2019-02-04T09:22:33.370Z,1002.13
2019-02-04T09:23:33.504Z,1002.15
2019-02-04T09:24:33.629Z,1002.15
2019-02-04T09:25:33.755Z,1002.13
2019-02-04T09:26:33.886Z,1002.14
2019-02-04T09:27:34.010Z,1002.12
2019-02-04T09:28:34.138Z,1002.17
2019-02-04T09:29:34.261Z,1002.15
2019-02-04T09:30:34.390Z,1002.15
2019-02-04T09:31:35.273Z,1002.12
2019-02-04T09:32:34.621Z,1002.14
2019-02-04T09:33:34.742Z,1002.15
2019-02-04T09:34:34.874Z,1002.08
2019-02-04T09:35:35.008Z,1002.10
2019-02-04T09:36:35.129Z,1002.15
2019-02-04T09:37:35.253Z,1002.10
2019-02-04T09:38:35.378Z,1002.09
2019-02-04T09:39:35.511Z,1002.07
2019-02-04T09:40:35.638Z,1002.09
2019-02-04T09:41:35.770Z,1002.09
2019-02-04T09:42:35.896Z,1002.09
2019-02-04T09:43:36.022Z,1002.07
2019-02-04T09:44:36.160Z,1002.05
2019-02-04T09:45:36.305Z,1002.01
2019-02-04T09:46:36.420Z,1002.02
2019-02-04T09:47:36.552Z,1002.01
2019-02-04T09:48:36.739Z,1001.99
2019-02-04T09:49:36.750Z,1001.98
2019-02-04T09:50:36.881Z,1002.01
2019-02-04T09:51:37.018Z,1002.01
2019-02-04T09:52:37.144Z,1001.96
2019-02-04T09:53:37.269Z,1001.99
2019-02-04T09:54:37.393Z,1002.03
2019-02-04T09:55:37.520Z,1001.96
2019-02-04T09:56:37.646Z,1001.99
2019-02-04T09:57:37.775Z,1001.97
2019-02-04T09:58:37.897Z,1001.96
2019-02-04T09:59:38.026Z,1001.96
2019-02-04T10:00:38.152Z,1002.07
2019-02-04T10:01:38.281Z,1002.04
2019-02-04T10:02:38.407Z,1002.08
2019-02-04T10:03:38.534Z,1002.06
2019-02-04T10:04:38.661Z,1002.10
2019-02-04T10:05:38.787Z,1002.07
2019-02-04T10:06:38.924Z,1002.09
2019-02-04T10:07:39.046Z,1002.07
2019-02-04T10:08:39.176Z,1002.07
2019-02-04T10:09:39.309Z,1002.07
2019-02-04T10:10:39.434Z,1002.01
2019-02-04T10:11:39.561Z,1002.13
2019-02-04T10:12:39.686Z,1002.09
2019-02-04T10:13:39.814Z,1002.12
2019-02-04T10:14:39.939Z,1002.04
2019-02-04T10:15:40.086Z,1002.14
2019-02-04T10:16:40.201Z,1002.11
2019-02-04T10:17:40.333Z,1002.17
2019-02-04T10:18:40.482Z,1002.20
2019-02-04T10:19:40.624Z,1002.13
2019-02-04T10:20:40.743Z,1002.12
2019-02-04T10:21:40.851Z,1002.11
2019-02-04T10:22:40.977Z,1002.13
2019-02-04T10:23:41.180Z,1002.13
2019-02-04T10:24:41.231Z,1002.05
2019-02-04T10:25:41.371Z,1002.10
2019-02-04T10:26:41.594Z,1002.08
2019-02-04T10:27:41.625Z,1002.02
2019-02-04T10:28:41.741Z,1002.08
2019-02-04T10:29:41.877Z,1002.09
2019-02-04T10:30:41.997Z,1002.08
2019-02-04T10:31:42.127Z,1002.06
2019-02-04T10:32:44.365Z,1002.01
2019-02-04T10:33:43.292Z,1002.01
2019-02-04T10:34:42.547Z,1002.02
2019-02-04T10:35:42.642Z,1001.99
2019-02-04T10:36:42.812Z,1002.05
2019-02-04T10:37:42.943Z,1001.93
2019-02-04T10:38:43.036Z,1002.10
2019-02-04T10:39:43.176Z,1002.01
2019-02-04T10:40:43.339Z,1002.00
2019-02-04T10:41:43.454Z,1002.02
2019-02-04T10:42:43.585Z,1001.96
2019-02-04T10:43:43.718Z,1001.94
2019-02-04T10:44:43.812Z,1002.00
2019-02-04T10:45:43.961Z,1001.92
2019-02-04T10:46:44.073Z,1001.93
2019-02-04T10:47:44.251Z,1001.89
2019-02-04T10:48:44.361Z,1001.85
2019-02-04T10:49:44.495Z,1001.85
2019-02-04T10:50:46.689Z,1001.87
2019-02-04T10:51:44.777Z,1001.83
2019-02-04T10:52:44.893Z,1001.86
2019-02-04T10:53:45.042Z,1001.79
2019-02-04T10:54:45.168Z,1001.82
2019-02-04T10:55:45.363Z,1001.76
2019-02-04T10:56:45.435Z,1001.70
2019-02-04T10:57:45.570Z,1001.72
2019-02-04T10:58:45.721Z,1001.73
2019-02-04T10:59:45.833Z,1001.68
2019-02-04T11:00:45.979Z,1001.66
2019-02-04T11:01:46.106Z,1001.65
2019-02-04T11:02:46.256Z,1001.60
2019-02-04T11:03:46.385Z,1001.66
2019-02-04T11:04:46.543Z,1001.59
2019-02-04T11:05:46.644Z,1001.55
2019-02-04T11:06:46.772Z,1001.57
2019-02-04T11:07:46.911Z,1001.58
2019-02-04T11:08:47.071Z,1001.53
2019-02-04T11:09:47.185Z,1001.53
2019-02-04T11:10:47.313Z,1001.50
2019-02-04T11:11:47.581Z,1001.60
2019-02-04T11:12:47.610Z,1001.56
2019-02-04T11:13:47.750Z,1001.52
2019-02-04T11:14:47.902Z,1001.47
2019-02-04T11:15:48.029Z,1001.47
2019-02-04T11:16:48.130Z,1001.42
2019-02-04T11:17:48.266Z,1001.48
2019-02-04T11:18:48.389Z,1001.48
2019-02-04T11:19:48.589Z,1001.40
2019-02-04T11:20:57.743Z,1001.37
2019-02-04T11:21:48.869Z,1001.38
2019-02-04T11:22:49.028Z,1001.45
2019-02-04T11:23:49.141Z,1001.42
2019-02-04T11:24:49.278Z,1001.37
2019-02-04T11:25:49.428Z,1001.45
2019-02-04T11:26:49.601Z,1001.41
2019-02-04T11:27:49.746Z,1001.42
2019-02-04T11:28:49.860Z,1001.31
2019-02-04T11:29:50.043Z,1001.41
2019-02-04T11:30:50.150Z,1001.29
2019-02-04T11:31:50.295Z,1001.35
2019-02-04T11:32:50.383Z,1001.27
2019-02-04T11:33:50.514Z,1001.19
2019-02-04T11:34:50.666Z,1001.27
2019-02-04T11:35:51.047Z,1001.26
2019-02-04T11:36:50.940Z,1001.30
2019-02-04T11:37:51.063Z,1001.20
2019-02-04T11:38:51.232Z,1001.19
2019-02-04T11:39:51.370Z,1001.15
2019-02-04T11:40:51.524Z,1001.19
2019-02-04T11:41:51.629Z,1001.15
2019-02-04T11:42:51.794Z,1001.16
2019-02-04T11:43:51.904Z,1001.12
2019-02-04T11:44:52.020Z,1001.13
2019-02-04T11:45:54.877Z,1001.21
2019-02-04T11:46:52.334Z,1001.22
2019-02-04T11:47:52.453Z,1001.20
2019-02-04T11:48:52.545Z,1001.07
2019-02-04T11:49:52.684Z,1001.12
2019-02-04T11:50:52.820Z,1001.17
2019-02-04T11:51:52.958Z,1001.27
2019-02-04T11:52:53.095Z,1001.11
2019-02-04T11:53:53.226Z,1001.21
2019-02-04T11:54:53.367Z,1001.11
2019-02-04T11:55:53.499Z,1001.04
2019-02-04T11:56:53.639Z,1001.12
2019-02-04T11:57:53.778Z,1001.11
2019-02-04T11:58:53.920Z,1001.21
2019-02-04T11:59:54.053Z,1001.03
2019-02-04T12:00:54.190Z,1001.07
2019-02-04T12:01:54.324Z,1000.98
2019-02-04T12:02:54.466Z,1001.09
2019-02-04T12:03:54.599Z,1001.05
2019-02-04T12:04:54.731Z,1001.02
2019-02-04T12:05:54.863Z,1001.08
2019-02-04T12:06:55.003Z,1001.04
2019-02-04T12:07:55.140Z,1000.99
2019-02-04T12:08:55.269Z,1000.95
2019-02-04T12:09:55.404Z,1000.89
2019-02-04T12:10:55.535Z,1000.98